Time;durP1;ratioP1;P1;durP2;ratioP2;P2;SDS_P1;SDS_P2;PMS_P1;PMS_P2;Temp;Humidity;BMP_temperature;BMP_pressure;BME280_temperature;BME280_humidity;BME280_pressure;Samples;Min_cycle;Max_cycle;Signal;HPM_P1;HPM_P2
2023/10/05 00:00:39;;;;;;;21.00;3.95;;;;;;;14.85;100.00;102334.25;6105063;19;20007;-76
2023/10/05 00:02:45;;;;;;;7.75;2.95;;;;;;;14.83;100.00;102323.72;6100698;19;20425;-76
2023/10/05 00:04:51;;;;;;;16.23;3.75;;;;;;;14.80;100.00;102315.91;6102662;19;20014;-77
2023/10/05 00:06:59;;;;;;;14.63;3.38;;;;;;;14.75;100.00;102322.28;6098606;19;20030;-78
2023/10/05 00:09:11;;;;;;;11.23;3.05;;;;;;;14.74;100.00;102321.38;6099560;19;20403;-75
2023/10/05 00:11:23;;;;;;;11.20;3.22;;;;;;;14.81;100.00;102322.91;6100183;19;20026;-76
2023/10/05 00:13:32;;;;;;;11.80;2.72;;;;;;;14.76;100.00;102324.84;6101665;19;20045;-75
2023/10/05 00:15:40;;;;;;;8.57;2.67;;;;;;;14.73;100.00;102324.97;6099114;19;20362;-75
2023/10/05 00:17:48;;;;;;;11.05;2.78;;;;;;;14.73;100.00;102322.31;6101160;19;20081;-75
2023/10/05 00:19:53;;;;;;;11.30;2.85;;;;;;;14.74;100.00;102325.81;6103667;19;20010;-75
2023/10/05 00:21:59;;;;;;;9.77;3.10;;;;;;;14.74;100.00;102331.09;6100179;19;20006;-76
2023/10/05 00:24:02;;;;;;;7.18;3.15;;;;;;;14.75;100.00;102328.44;6101504;19;20574;-78
2023/10/05 00:26:09;;;;;;;11.95;2.85;;;;;;;14.74;100.00;102323.16;6102872;19;20002;-76
2023/10/05 00:28:23;;;;;;;13.80;3.50;;;;;;;14.73;100.00;102332.91;6101681;19;20006;-77
2023/10/05 00:30:29;;;;;;;10.30;3.00;;;;;;;14.76;100.00;102330.16;6102931;19;20014;-76
2023/10/05 00:32:39;;;;;;;11.90;2.97;;;;;;;14.71;100.00;102325.00;6103147;19;20010;-77
2023/10/05 00:34:52;;;;;;;14.35;2.92;;;;;;;14.70;100.00;102331.22;6096395;19;20089;-76
2023/10/05 00:37:01;;;;;;;9.30;3.08;;;;;;;14.72;100.00;102328.53;6102981;19;20560;-74
2023/10/05 00:39:08;;;;;;;9.18;3.08;;;;;;;14.75;100.00;102323.13;6101511;19;20063;-76
2023/10/05 00:41:13;;;;;;;6.55;2.42;;;;;;;14.79;97.58;102313.28;6103602;19;20010;-76
2023/10/05 00:43:24;;;;;;;10.88;4.30;;;;;;;14.90;95.05;102321.72;6105008;19;20039;-76
2023/10/05 00:45:31;;;;;;;12.32;3.20;;;;;;;15.06;93.11;102324.69;6101395;19;20002;-76
2023/10/05 00:47:42;;;;;;;9.70;3.10;;;;;;;15.04;92.85;102330.06;6099988;19;20018;-75
2023/10/05 00:49:57;;;;;;;9.40;3.10;;;;;;;15.06;92.24;102327.34;6100343;19;20002;-75
2023/10/05 00:52:13;;;;;;;18.83;3.65;;;;;;;15.11;91.40;102320.09;6099915;19;20007;-74
2023/10/05 00:54:22;;;;;;;15.32;3.40;;;;;;;15.07;92.01;102327.28;6096999;19;20075;-75
2023/10/05 00:56:33;;;;;;;15.32;3.53;;;;;;;15.05;92.03;102331.78;6104019;19;20010;-75
2023/10/05 00:58:47;;;;;;;14.85;3.17;;;;;;;15.00;92.23;102335.50;6096405;19;20018;-76
2023/10/05 01:00:50;;;;;;;11.75;3.20;;;;;;;15.01;91.70;102331.94;6099762;19;20010;-75
2023/10/05 01:03:22;;;;;;;10.48;2.83;;;;;;;15.00;91.98;102333.72;6105204;19;20003;-75
2023/10/05 01:05:35;;;;;;;8.55;2.90;;;;;;;14.95;92.71;102318.91;6101695;19;20007;-74
2023/10/05 01:07:56;;;;;;;5.22;2.38;;;;;;;14.93;92.29;102314.56;6099716;19;20019;-76
2023/10/05 01:12:38;;;;;;;6.78;2.58;;;;;;;15.06;91.18;102315.00;6099650;19;20007;-77
2023/10/05 01:14:51;;;;;;;8.52;2.72;;;;;;;15.06;90.47;102322.03;6099168;19;20023;-75
2023/10/05 01:16:58;;;;;;;7.80;2.53;;;;;;;15.09;89.83;102312.22;6102737;19;20382;-76
2023/10/05 01:19:07;;;;;;;8.07;2.70;;;;;;;15.09;89.72;102308.72;6101374;19;20013;-75
2023/10/05 01:21:14;;;;;;;8.93;3.00;;;;;;;15.13;89.10;102312.97;6099283;19;20006;-75
2023/10/05 01:23:38;;;;;;;18.10;4.20;;;;;;;15.16;88.50;102302.25;6100451;19;20017;-75
2023/10/05 01:25:47;;;;;;;8.10;2.83;;;;;;;15.19;87.40;102304.78;6096848;19;20013;-74
2023/10/05 01:27:54;;;;;;;9.02;2.88;;;;;;;15.27;87.37;102305.41;6100506;19;20010;-75
2023/10/05 01:29:59;;;;;;;16.02;2.90;;;;;;;15.20;87.57;102311.84;6103693;19;20011;-75
2023/10/05 01:32:05;;;;;;;8.93;2.67;;;;;;;15.29;86.44;102302.69;6090190;19;20087;-75
2023/10/05 01:34:11;;;;;;;8.00;2.95;;;;;;;15.26;86.49;102303.66;6099342;19;20014;-75
2023/10/05 01:36:19;;;;;;;9.40;2.33;;;;;;;15.29;85.05;102300.03;6101956;19;20926;-75
2023/10/05 01:38:23;;;;;;;11.18;3.17;;;;;;;15.27;84.92;102312.47;6098759;19;20013;-77
2023/10/05 01:40:33;;;;;;;9.48;2.67;;;;;;;15.23;84.73;102302.91;6103491;19;19999;-76
2023/10/05 01:42:37;;;;;;;13.02;3.03;;;;;;;15.21;85.15;102310.91;6101312;19;20474;-77
2023/10/05 01:44:47;;;;;;;6.80;2.35;;;;;;;15.25;84.58;102309.88;6101365;19;20035;-76
2023/10/05 01:46:57;;;;;;;10.38;3.03;;;;;;;15.14;84.82;102310.28;6103469;19;20550;-76
2023/10/05 01:49:04;;;;;;;10.23;2.80;;;;;;;15.17;85.08;102313.75;6103517;19;20010;-76
2023/10/05 01:51:13;;;;;;;8.15;2.60;;;;;;;15.20;84.39;102309.19;6103711;19;20006;-74
2023/10/05 01:53:16;;;;;;;15.93;2.70;;;;;;;15.18;85.01;102316.31;6099664;19;20177;-74
2023/10/05 01:55:21;;;;;;;;;;;;;;;15.15;85.70;102321.72;6103894;19;20079;-74
2023/10/05 01:57:30;;;;;;;7.53;2.60;;;;;;;15.13;85.45;102316.47;6101359;19;20368;-76
2023/10/05 01:59:35;;;;;;;6.82;2.40;;;;;;;15.19;84.93;102311.88;6102040;19;20032;-76
2023/10/05 02:01:45;;;;;;;7.88;2.67;;;;;;;15.15;85.44;102306.69;6099639;19;20022;-77
2023/10/05 02:03:53;;;;;;;6.97;2.75;;;;;;;15.11;85.75;102318.34;6101956;19;20006;-77
2023/10/05 02:06:05;;;;;;;10.15;2.90;;;;;;;15.19;84.84;102307.44;6103431;19;20378;-75
2023/10/05 02:08:14;;;;;;;7.57;2.83;;;;;;;15.24;84.58;102316.09;6104886;19;20011;-76
2023/10/05 02:10:21;;;;;;;7.55;2.83;;;;;;;15.25;84.69;102301.94;6106212;19;20003;-75
2023/10/05 02:12:30;;;;;;;9.73;2.92;;;;;;;15.30;84.60;102300.00;6104727;19;20010;-76
2023/10/05 02:14:41;;;;;;;13.00;2.88;;;;;;;15.26;84.92;102303.66;6107494;19;20044;-75
2023/10/05 02:16:50;;;;;;;11.27;2.72;;;;;;;15.27;85.24;102301.88;6105778;19;20010;-76
2023/10/05 02:18:59;;;;;;;11.82;2.97;;;;;;;15.25;85.70;102304.59;6107441;19;20535;-74
2023/10/05 02:21:07;;;;;;;12.23;2.85;;;;;;;15.22;86.16;102302.06;6105158;19;20130;-75
2023/10/05 02:25:39;;;;;;;16.73;3.10;;;;;;;15.26;86.47;102298.34;6101820;19;20010;-75
2023/10/05 02:27:49;;;;;;;8.20;2.70;;;;;;;15.27;87.13;102293.91;6105293;19;20065;-75
2023/10/05 02:29:54;;;;;;;13.23;2.58;;;;;;;15.31;86.79;102296.41;6105767;19;20018;-75
2023/10/05 02:32:05;;;;;;;9.07;2.95;;;;;;;15.29;86.77;102287.66;6105179;19;20019;-75
2023/10/05 02:34:16;;;;;;;9.57;3.33;;;;;;;15.27;87.02;102280.69;6104353;19;20491;-74
2023/10/05 02:36:27;;;;;;;8.32;3.30;;;;;;;15.23;87.49;102287.88;6106397;19;20043;-74
2023/10/05 02:38:29;;;;;;;18.10;4.15;;;;;;;15.22;87.37;102288.81;6103400;19;20654;-76
2023/10/05 02:40:39;;;;;;;12.02;3.33;;;;;;;15.20;87.88;102292.44;6106275;19;20090;-75
2023/10/05 02:42:51;;;;;;;9.77;3.22;;;;;;;15.22;87.59;102293.22;6105517;19;20755;-75
2023/10/05 02:45:02;;;;;;;12.85;3.47;;;;;;;15.23;87.21;102287.88;6104833;19;20129;-75
2023/10/05 02:47:13;;;;;;;11.85;3.13;;;;;;;15.16;87.97;102289.03;6106300;19;20595;-77
2023/10/05 02:49:19;;;;;;;18.58;3.88;;;;;;;15.21;87.52;102280.91;6104333;19;20006;-76
2023/10/05 02:51:26;;;;;;;12.95;3.20;;;;;;;15.17;87.54;102287.25;6099669;19;20003;-75
2023/10/05 02:53:29;;;;;;;9.95;3.35;;;;;;;15.08;87.83;102286.66;6101823;19;20090;-75
2023/10/05 02:55:36;;;;;;;12.68;3.30;;;;;;;15.08;88.00;102284.00;6101957;19;20035;-75
2023/10/05 02:57:41;;;;;;;11.82;3.08;;;;;;;15.07;88.54;102281.44;6103152;19;20038;-75
2023/10/05 02:59:50;;;;;;;11.02;3.20;;;;;;;15.02;88.81;102281.59;6103923;19;20015;-75
2023/10/05 03:02:00;;;;;;;16.27;3.67;;;;;;;14.94;89.18;102281.00;6100059;19;20337;-74
2023/10/05 03:04:16;;;;;;;10.88;2.90;;;;;;;14.89;89.02;102277.66;6105667;19;20014;-75
2023/10/05 03:06:23;;;;;;;13.77;4.22;;;;;;;14.86;88.74;102275.13;6100708;19;20348;-75
2023/10/05 03:08:29;;;;;;;10.70;3.13;;;;;;;14.83;88.56;102289.31;6101512;19;20022;-75
2023/10/05 03:10:34;;;;;;;18.77;3.35;;;;;;;14.77;88.65;102289.56;6101359;19;20035;-76
2023/10/05 03:12:39;;;;;;;20.45;4.32;;;;;;;14.67;89.26;102288.13;6101906;19;20017;-75
2023/10/05 03:14:52;;;;;;;16.58;4.38;;;;;;;14.61;89.27;102283.03;6104240;19;20003;-75
2023/10/05 03:16:57;;;;;;;11.45;3.13;;;;;;;14.55;89.33;102285.91;6102822;19;20013;-75
2023/10/05 03:19:02;;;;;;;13.45;3.30;;;;;;;14.54;89.14;102292.13;6100900;19;20013;-76
2023/10/05 03:21:12;;;;;;;;;;;;;;;14.57;88.98;102284.06;6105862;19;20741;-75
2023/10/05 03:23:17;;;;;;;12.18;3.58;;;;;;;14.49;89.24;102285.16;6103459;19;19943;-75
2023/10/05 03:25:23;;;;;;;11.13;3.35;;;;;;;14.48;88.98;102285.19;6102984;19;20018;-75
2023/10/05 03:27:30;;;;;;;15.18;2.95;;;;;;;14.44;89.33;102297.66;6101798;19;20517;-75
2023/10/05 03:29:38;;;;;;;17.88;3.40;;;;;;;14.44;89.48;102292.38;6101910;19;20077;-74
2023/10/05 03:31:53;;;;;;;16.15;3.20;;;;;;;14.42;89.45;102296.84;6103814;19;20536;-75
2023/10/05 03:33:59;;;;;;;10.25;2.80;;;;;;;14.32;90.06;102290.13;6104391;19;20093;-77
2023/10/05 03:36:06;;;;;;;13.55;3.33;;;;;;;14.27;90.60;102289.44;6103134;19;20506;-75
2023/10/05 03:38:19;;;;;;;8.80;3.00;;;;;;;14.28;90.81;102285.88;6101524;19;20031;-75
2023/10/05 03:40:27;;;;;;;14.30;3.35;;;;;;;14.26;91.12;102287.69;6103224;19;20006;-75
2023/10/05 03:42:32;;;;;;;16.75;4.15;;;;;;;14.37;90.93;102284.69;6099147;19;20028;-76
2023/10/05 03:44:38;;;;;;;10.02;3.60;;;;;;;14.36;91.40;102286.47;6103649;19;20006;-75
2023/10/05 03:46:49;;;;;;;16.45;3.22;;;;;;;14.35;91.83;102289.16;6104910;19;20085;-75
2023/10/05 03:48:59;;;;;;;15.60;3.40;;;;;;;14.32;92.23;102292.78;6101758;19;20002;-74
2023/10/05 03:51:15;;;;;;;10.55;2.95;;;;;;;14.32;92.18;102290.13;6105407;19;20130;-74
2023/10/05 03:53:20;;;;;;;16.77;3.78;;;;;;;14.30;92.50;102284.06;6100626;19;20015;-75
2023/10/05 03:55:26;;;;;;;10.63;3.17;;;;;;;14.31;92.68;102288.41;6103330;19;20015;-75
2023/10/05 03:57:31;;;;;;;11.82;3.97;;;;;;;14.28;93.32;102296.47;6103846;19;20003;-76
2023/10/05 03:59:36;;;;;;;15.70;3.42;;;;;;;14.29;93.38;102292.88;6096535;19;20017;-75
2023/10/05 04:01:41;;;;;;;13.75;4.03;;;;;;;14.28;93.72;102284.09;6100934;19;20007;-77
2023/10/05 04:03:49;;;;;;;13.25;3.20;;;;;;;14.24;94.04;102285.13;6102462;19;20016;-75
2023/10/05 04:05:52;;;;;;;13.50;4.25;;;;;;;14.23;94.42;102288.66;6101755;19;20015;-74
2023/10/05 04:08:10;;;;;;;;;;;;;;;14.24;94.59;102298.34;6104374;19;20013;-74
2023/10/05 04:10:23;;;;;;;13.18;3.78;;;;;;;14.21;94.61;102289.63;6103451;19;19927;-75
2023/10/05 04:12:32;;;;;;;15.73;4.07;;;;;;;14.22;95.06;102283.44;6101392;19;20002;-76
2023/10/05 04:14:42;;;;;;;11.25;3.15;;;;;;;14.19;95.12;102275.59;6101824;19;20293;-76
2023/10/05 04:16:48;;;;;;;13.73;3.47;;;;;;;14.21;94.36;102284.34;6101889;19;20014;-75
2023/10/05 04:18:58;;;;;;;10.02;3.25;;;;;;;14.21;94.21;102284.34;6102767;19;20009;-75
2023/10/05 04:21:04;;;;;;;13.40;3.63;;;;;;;14.14;94.62;102282.81;6103640;19;20015;-76
2023/10/05 04:23:09;;;;;;;10.18;2.75;;;;;;;14.24;93.24;102278.94;6102697;19;20584;-77
2023/10/05 04:25:19;;;;;;;11.00;3.00;;;;;;;14.17;93.52;102282.72;6102062;19;20013;-76
2023/10/05 04:27:24;;;;;;;13.07;4.32;;;;;;;14.22;93.02;102283.44;6097878;19;20355;-74
2023/10/05 04:29:27;;;;;;;16.60;4.05;;;;;;;14.14;93.71;102283.69;6096654;19;20010;-76
2023/10/05 04:31:36;;;;;;;9.20;2.95;;;;;;;14.09;93.19;102288.25;6103362;19;20565;-75
2023/10/05 04:33:43;;;;;;;9.70;3.20;;;;;;;14.04;93.74;102288.41;6101824;19;20025;-75
2023/10/05 04:35:54;;;;;;;10.43;2.80;;;;;;;14.03;93.81;102288.44;6101044;19;20010;-76
2023/10/05 04:38:00;;;;;;;10.13;3.67;;;;;;;13.97;94.07;102283.34;6100677;19;20043;-75
2023/10/05 04:40:10;;;;;;;16.05;3.58;;;;;;;13.95;94.27;102286.03;6100457;19;20524;-78
2023/10/05 04:42:16;;;;;;;11.60;3.53;;;;;;;13.95;94.55;102285.16;6103859;19;20610;-74
2023/10/05 04:44:21;;;;;;;6.40;3.00;;;;;;;13.94;94.81;102283.47;6103144;19;20011;-75
2023/10/05 04:46:30;;;;;;;13.00;3.33;;;;;;;13.94;95.19;102292.25;6101264;19;20002;-75
2023/10/05 04:48:35;;;;;;;17.17;3.60;;;;;;;13.94;94.79;102286.97;6100854;19;20071;-76
2023/10/05 04:50:40;;;;;;;;;;;;;;;13.90;95.06;102287.97;6099527;19;20479;-75
2023/10/05 04:52:51;;;;;;;11.98;3.28;;;;;;;13.85;95.68;102284.63;6099503;19;19922;-75
2023/10/05 04:55:11;;;;;;;8.95;2.78;;;;;;;13.89;95.52;102288.03;6101630;19;20002;-76
2023/10/05 04:57:34;;;;;;;13.02;2.95;;;;;;;13.82;96.02;102284.69;6106572;19;20007;-75
2023/10/05 04:59:47;;;;;;;12.15;3.55;;;;;;;13.80;96.61;102291.81;6101816;19;20003;-77
2023/10/05 05:02:00;;;;;;;11.70;2.95;;;;;;;13.76;97.10;102290.16;6101450;19;20085;-75
2023/10/05 05:04:15;;;;;;;14.45;2.97;;;;;;;13.74;97.33;102295.50;6103892;19;20015;-76
2023/10/05 05:06:20;;;;;;;8.32;3.17;;;;;;;13.79;97.68;102298.00;6101756;19;20380;-77
2023/10/05 05:08:31;;;;;;;15.23;3.95;;;;;;;13.82;97.82;102289.97;6101567;19;20014;-77
2023/10/05 05:10:36;;;;;;;10.93;2.85;;;;;;;13.80;98.50;102289.19;6100818;19;20572;-77
2023/10/05 05:12:42;;;;;;;8.88;2.83;;;;;;;13.81;98.72;102302.31;6099487;19;20562;-77
2023/10/05 05:14:49;;;;;;;8.60;2.70;;;;;;;13.83;98.87;102299.66;6102740;19;20010;-77
2023/10/05 05:16:58;;;;;;;11.43;3.10;;;;;;;13.80;99.01;102305.03;6100554;19;20134;-75
2023/10/05 05:19:04;;;;;;;11.95;3.17;;;;;;;13.77;99.21;102305.09;6102681;19;20018;-75
2023/10/05 05:21:07;;;;;;;13.02;3.38;;;;;;;13.81;100.00;102296.19;6100115;19;20602;-76
2023/10/05 05:23:16;;;;;;;10.18;2.72;;;;;;;13.79;99.97;102296.22;6099940;19;20544;-75
2023/10/05 05:25:25;;;;;;;7.05;3.05;;;;;;;13.78;99.86;102307.72;6100595;19;20014;-75
2023/10/05 05:27:30;;;;;;;11.38;2.83;;;;;;;13.80;100.00;102308.53;6098232;19;20010;-75
2023/10/05 05:29:37;;;;;;;11.80;3.20;;;;;;;13.81;100.00;102304.97;6103456;19;20430;-78
2023/10/05 05:31:45;;;;;;;16.23;3.35;;;;;;;13.82;99.91;102317.28;6102660;19;20050;-75
2023/10/05 05:33:52;;;;;;;14.40;3.90;;;;;;;13.87;100.00;102309.19;6099467;19;20105;-75
2023/10/05 05:35:57;;;;;;;6.68;2.67;;;;;;;13.83;99.91;102310.22;6102233;19;20014;-75
2023/10/05 05:38:02;;;;;;;8.73;2.80;;;;;;;13.86;100.00;102314.53;6100289;19;20011;-75
2023/10/05 05:40:12;;;;;;;15.30;2.88;;;;;;;13.82;100.00;102317.28;6104888;19;20023;-76
2023/10/05 05:42:20;;;;;;;10.05;3.13;;;;;;;13.83;100.00;102316.34;6104096;19;20006;-77
2023/10/05 05:44:28;;;;;;;8.35;3.35;;;;;;;13.78;99.70;102317.41;6107366;19;20015;-75
2023/10/05 05:46:35;;;;;;;17.35;4.57;;;;;;;13.73;100.00;102312.25;6108146;19;20006;-77
2023/10/05 05:48:42;;;;;;;7.90;2.75;;;;;;;13.73;100.00;102311.41;6105683;19;20015;-78
2023/10/05 05:50:48;;;;;;;10.75;2.75;;;;;;;13.74;100.00;102313.97;6104918;19;20144;-78
2023/10/05 05:52:56;;;;;;;10.02;3.00;;;;;;;13.70;100.00;102309.72;6102611;19;20515;-77
2023/10/05 05:55:09;;;;;;;11.57;3.35;;;;;;;13.78;100.00;102317.41;6105857;19;20014;-76
2023/10/05 05:57:19;;;;;;;16.00;3.95;;;;;;;13.74;100.00;102310.47;6104008;19;20014;-76
2023/10/05 05:59:26;;;;;;;11.05;3.10;;;;;;;13.79;100.00;102319.13;6103438;19;20108;-75
2023/10/05 06:01:35;;;;;;;13.77;2.95;;;;;;;13.77;100.00;102319.19;6105055;19;20017;-76
2023/10/05 06:03:43;;;;;;;12.63;3.42;;;;;;;13.78;100.00;102317.41;6104627;19;20002;-76
2023/10/05 06:05:51;;;;;;;13.40;3.42;;;;;;;13.76;100.00;102313.94;6107143;19;20023;-76
2023/10/05 06:08:01;;;;;;;12.23;3.47;;;;;;;13.78;100.00;102317.41;6106327;19;20010;-76
2023/10/05 06:10:12;;;;;;;14.38;3.42;;;;;;;13.78;100.00;102317.41;6086008;19;20460;-75
2023/10/05 06:12:20;;;;;;;9.60;3.38;;;;;;;13.79;100.00;102319.13;6106244;19;20002;-75
2023/10/05 06:14:30;;;;;;;14.00;3.17;;;;;;;13.77;100.00;102321.84;6107385;19;20074;-75
2023/10/05 06:16:36;;;;;;;11.00;3.28;;;;;;;13.80;100.00;102320.88;6107514;19;20482;-75
2023/10/05 06:18:42;;;;;;;9.55;2.90;;;;;;;13.87;100.00;102322.41;6107257;19;20652;-76
2023/10/05 06:20:58;;;;;;;11.25;2.75;;;;;;;13.86;100.00;102320.69;6109348;19;20445;-77
2023/10/05 06:23:06;;;;;;;13.05;3.22;;;;;;;13.92;100.00;102323.13;6103650;19;20014;-77
2023/10/05 06:25:25;;;;;;;7.85;3.03;;;;;;;14.00;100.00;102326.41;6109578;19;20314;-75
2023/10/05 06:27:30;;;;;;;8.70;3.40;;;;;;;13.99;100.00;102332.59;6106603;19;20483;-76
2023/10/05 06:29:38;;;;;;;13.23;3.55;;;;;;;14.03;100.00;102330.72;6106447;19;20462;-77
2023/10/05 06:31:57;;;;;;;12.95;3.42;;;;;;;14.03;100.00;102334.25;6059764;19;20019;-77
2023/10/05 06:34:02;;;;;;;12.75;3.28;;;;;;;14.01;100.00;102345.78;6106180;19;20516;-76
2023/10/05 06:36:07;;;;;;;10.52;3.50;;;;;;;14.05;100.00;102337.69;6104916;19;20218;-78
2023/10/05 06:38:16;;;;;;;6.70;3.08;;;;;;;14.10;100.00;102344.63;6108999;19;20018;-77
2023/10/05 06:40:24;;;;;;;8.95;2.92;;;;;;;14.13;100.00;102344.53;6107847;19;20268;-77
2023/10/05 06:42:29;;;;;;;13.90;3.30;;;;;;;14.11;100.00;102343.69;6106682;19;20015;-77
2023/10/05 06:44:39;;;;;;;9.23;3.35;;;;;;;14.13;100.00;102348.03;6105599;19;20628;-78
2023/10/05 06:46:49;;;;;;;11.18;4.50;;;;;;;14.18;100.00;102348.75;6105913;19;20089;-75
2023/10/05 06:48:55;;;;;;;16.65;4.30;;;;;;;14.22;100.00;102352.19;6107210;19;20369;-76
2023/10/05 06:51:00;;;;;;;11.38;3.03;;;;;;;14.27;100.00;102361.69;6100644;19;20017;-76
2023/10/05 06:53:03;;;;;;;11.50;3.65;;;;;;;14.28;100.00;102360.78;6099996;19;20014;-77
2023/10/05 06:55:12;;;;;;;12.65;3.28;;;;;;;14.31;100.00;102369.53;6093849;19;20015;-76
2023/10/05 06:57:17;;;;;;;13.95;3.65;;;;;;;14.36;100.00;102379.06;6104159;19;20506;-77
2023/10/05 06:59:25;;;;;;;11.35;3.58;;;;;;;14.43;99.73;102374.44;6099432;19;20063;-76
2023/10/05 07:01:41;;;;;;;10.98;4.30;;;;;;;14.48;100.00;102373.38;6102715;19;20010;-75
2023/10/05 07:03:58;;;;;;;12.68;3.10;;;;;;;14.54;99.99;102379.41;6093830;19;20078;-74
2023/10/05 07:06:04;;;;;;;9.75;3.15;;;;;;;14.56;99.90;102374.91;6096774;19;20026;-77
2023/10/05 07:08:14;;;;;;;12.52;3.90;;;;;;;14.60;100.00;102381.84;6103862;19;20015;-75
2023/10/05 07:10:19;;;;;;;14.63;3.85;;;;;;;14.66;99.62;102395.72;6098143;19;20006;-75
2023/10/05 07:12:24;;;;;;;10.10;3.22;;;;;;;14.69;99.82;102392.13;6099964;19;20007;-75
2023/10/05 07:14:32;;;;;;;10.68;2.80;;;;;;;14.70;99.98;102400.03;6099855;19;20015;-77
2023/10/05 07:16:43;;;;;;;25.13;4.57;;;;;;;14.75;99.37;102407.81;6099418;19;20569;-77
2023/10/05 07:18:51;;;;;;;11.82;3.33;;;;;;;14.88;98.73;102410.91;6094670;19;20475;-77
2023/10/05 07:20:57;;;;;;;14.27;3.90;;;;;;;14.91;97.71;102406.38;6094671;19;20330;-76
2023/10/05 07:23:03;;;;;;;14.50;3.78;;;;;;;14.97;97.45;102401.78;6098431;19;20006;-75
2023/10/05 07:25:06;;;;;;;13.15;4.40;;;;;;;15.03;97.25;102410.38;6091609;19;20105;-74
2023/10/05 07:27:11;;;;;;;7.45;3.17;;;;;;;15.09;97.37;102406.69;6101831;19;20010;-76
2023/10/05 07:29:16;;;;;;;9.93;3.08;;;;;;;15.13;96.96;102413.59;6099483;19;20043;-77
2023/10/05 07:31:35;;;;;;;14.70;3.15;;;;;;;15.20;96.12;102403.66;6093217;19;20011;-78
2023/10/05 07:33:46;;;;;;;16.17;3.33;;;;;;;15.28;95.64;102399.81;6101971;19;20029;-77
2023/10/05 07:35:53;;;;;;;10.40;3.05;;;;;;;15.36;96.19;102410.16;6101199;19;20006;-76
2023/10/05 07:38:00;;;;;;;10.10;2.83;;;;;;;15.41;95.82;102404.69;6099904;19;20003;-77
2023/10/05 07:40:07;;;;;;;11.73;3.20;;;;;;;15.44;96.10;102402.78;6096278;19;20035;-77
2023/10/05 07:42:17;;;;;;;11.95;3.83;;;;;;;15.48;95.00;102415.00;6098668;19;20073;-78
2023/10/05 07:44:22;;;;;;;14.13;3.42;;;;;;;15.51;94.96;102408.75;6096310;19;20066;-77
2023/10/05 07:46:28;;;;;;;18.98;4.15;;;;;;;15.61;95.32;102411.91;6099733;19;20444;-75
2023/10/05 07:48:34;;;;;;;11.32;3.20;;;;;;;15.68;94.92;102418.72;6103607;19;20024;-77
2023/10/05 07:50:42;;;;;;;13.20;4.32;;;;;;;15.78;93.94;102407.75;6094129;19;20044;-77
2023/10/05 07:52:50;;;;;;;8.98;3.08;;;;;;;15.93;93.68;102416.91;6094184;19;20427;-76
2023/10/05 07:54:57;;;;;;;11.15;2.83;;;;;;;16.08;93.55;102419.91;6098356;19;20007;-76
2023/10/05 07:57:03;;;;;;;14.65;2.97;;;;;;;16.17;92.63;102430.16;6100701;19;20007;-77
2023/10/05 07:59:08;;;;;;;14.93;3.33;;;;;;;16.28;92.29;102433.25;6101845;19;20045;-76
2023/10/05 08:01:14;;;;;;;8.50;3.22;;;;;;;16.43;92.50;102442.41;6094977;19;20010;-75
2023/10/05 08:03:20;;;;;;;12.32;4.03;;;;;;;16.41;91.87;102431.84;6097015;19;20014;-76
2023/10/05 08:05:23;;;;;;;12.43;3.22;;;;;;;16.55;91.69;102428.63;6098718;19;20420;-76
2023/10/05 08:07:32;;;;;;;10.63;2.92;;;;;;;16.56;91.60;102443.66;6102036;19;20011;-76
2023/10/05 08:09:37;;;;;;;12.57;3.67;;;;;;;16.66;91.13;102431.72;6102032;19;20047;-77
2023/10/05 08:11:44;;;;;;;14.32;3.40;;;;;;;16.77;91.02;102441.03;6103284;19;20010;-75
2023/10/05 08:13:49;;;;;;;15.10;3.38;;;;;;;16.82;90.89;102439.09;6098551;19;20396;-75
2023/10/05 08:15:54;;;;;;;15.98;3.83;;;;;;;16.73;90.14;102444.75;6095355;19;20291;-75
2023/10/05 08:17:58;;;;;;;9.90;3.10;;;;;;;16.81;91.08;102448.00;6098100;19;20003;-75
2023/10/05 08:20:04;;;;;;;9.25;2.83;;;;;;;16.77;91.06;102446.34;6099360;19;20387;-74
2023/10/05 08:22:12;;;;;;;12.73;3.53;;;;;;;16.92;90.66;102455.50;6098167;19;20017;-75
2023/10/05 08:24:20;;;;;;;9.27;3.45;;;;;;;16.89;90.31;102451.19;6091831;19;20132;-74
2023/10/05 08:26:24;;;;;;;9.88;3.13;;;;;;;16.88;90.75;102466.25;6099177;19;20011;-78
2023/10/05 08:28:31;;;;;;;11.75;3.95;;;;;;;16.83;90.81;102472.69;6098529;19;20020;-76
2023/10/05 08:30:45;;;;;;;16.40;4.38;;;;;;;16.79;90.59;102468.41;6097825;19;20006;-76
2023/10/05 08:32:50;;;;;;;18.00;3.53;;;;;;;16.84;91.13;102458.47;6095909;19;20010;-74
2023/10/05 08:34:56;;;;;;;13.15;3.70;;;;;;;16.94;90.87;102462.50;6092651;19;20040;-74
2023/10/05 08:37:03;;;;;;;8.18;3.15;;;;;;;17.05;90.69;102464.69;6098566;19;20353;-74
2023/10/05 08:39:08;;;;;;;16.83;4.03;;;;;;;16.89;89.49;102470.63;6091375;19;20002;-75
2023/10/05 08:41:24;;;;;;;16.20;3.15;;;;;;;16.91;89.86;102473.25;6096709;19;20003;-74
2023/10/05 08:43:30;;;;;;;12.07;2.97;;;;;;;16.87;89.48;102468.97;6094020;19;20010;-74
2023/10/05 08:45:50;;;;;;;13.25;4.03;;;;;;;16.92;90.39;102474.97;6092607;19;20163;-77
2023/10/05 08:47:57;;;;;;;17.02;3.28;;;;;;;16.85;90.00;102473.47;6088024;19;20014;-75
2023/10/05 08:50:05;;;;;;;9.73;3.00;;;;;;;16.99;90.24;102470.28;6096254;19;20078;-78
2023/10/05 08:52:18;;;;;;;12.57;3.53;;;;;;;17.06;89.41;102480.59;6094749;19;20017;-77
2023/10/05 08:54:27;;;;;;;14.90;3.72;;;;;;;17.19;89.78;102488.00;6092325;19;20148;-78
2023/10/05 08:56:36;;;;;;;10.70;3.65;;;;;;;17.10;90.15;102500.75;6096493;19;20566;-74
2023/10/05 08:58:41;;;;;;;13.30;3.67;;;;;;;17.18;89.75;102496.94;6096911;19;20031;-75
2023/10/05 09:00:51;;;;;;;17.63;3.55;;;;;;;17.15;89.42;102511.19;6097639;19;20013;-75
2023/10/05 09:02:59;;;;;;;11.00;3.53;;;;;;;17.26;89.70;102514.25;6097909;19;20471;-74
2023/10/05 09:05:07;;;;;;;16.10;3.83;;;;;;;17.18;89.22;102515.53;6098725;19;20006;-76
2023/10/05 09:07:34;;;;;;;12.85;3.50;;;;;;;17.05;89.71;102509.84;6102603;19;20769;-76
2023/10/05 09:09:52;;;;;;;13.02;2.97;;;;;;;16.97;88.89;102511.97;6102439;19;20020;-75
2023/10/05 09:11:57;;;;;;;13.55;3.67;;;;;;;16.97;88.92;102510.16;6100501;19;20398;-75
2023/10/05 09:14:12;;;;;;;10.30;3.10;;;;;;;16.90;89.19;102508.66;6100711;19;20007;-75
2023/10/05 09:16:30;;;;;;;14.98;3.97;;;;;;;16.91;89.69;102513.06;6078170;19;20015;-75
2023/10/05 09:18:51;;;;;;;7.82;3.13;;;;;;;16.88;88.61;102514.06;6099606;19;20382;-75
2023/10/05 09:20:57;;;;;;;15.32;3.08;;;;;;;16.98;89.83;102516.31;6095229;19;20371;-76
2023/10/05 09:23:06;;;;;;;11.93;2.90;;;;;;;16.89;88.99;102514.91;6099062;19;20393;-76
2023/10/05 09:25:15;;;;;;;7.30;2.85;;;;;;;16.99;89.66;102521.59;6100190;19;20633;-75
2023/10/05 09:27:26;;;;;;;15.50;3.20;;;;;;;16.94;89.78;102522.72;6101424;19;20014;-76
2023/10/05 09:29:30;;;;;;;12.60;2.90;;;;;;;17.08;89.36;102521.19;6101093;19;20024;-76
2023/10/05 09:31:39;;;;;;;14.13;3.70;;;;;;;17.09;89.55;102527.41;6101157;19;20477;-76
2023/10/05 09:33:53;;;;;;;14.45;3.15;;;;;;;17.23;89.55;102529.47;6099165;19;20332;-75
2023/10/05 09:36:06;;;;;;;17.85;4.35;;;;;;;17.24;89.07;102526.75;6091387;19;20016;-76
2023/10/05 09:38:17;;;;;;;16.75;7.32;;;;;;;17.29;89.50;102523.91;6096242;19;20343;-77
2023/10/05 09:40:22;;;;;;;12.18;3.65;;;;;;;17.39;88.63;102522.59;6094528;19;20017;-76
2023/10/05 09:42:33;;;;;;;17.35;4.00;;;;;;;17.29;88.96;102523.91;6095229;19;20821;-75
2023/10/05 09:44:38;;;;;;;14.60;4.00;;;;;;;17.41;89.24;102523.41;6099638;19;20022;-77
2023/10/05 09:46:51;;;;;;;15.82;4.20;;;;;;;17.34;89.38;102521.91;6097329;19;20014;-76
2023/10/05 09:49:05;;;;;;;17.98;3.88;;;;;;;17.45;88.59;102527.63;6097745;19;20007;-75
2023/10/05 09:51:13;;;;;;;14.90;4.53;;;;;;;17.44;88.23;102528.56;6074747;19;20404;-76
2023/10/05 09:53:20;;;;;;;16.10;4.28;;;;;;;17.52;87.13;102528.25;6082008;19;20035;-76
2023/10/05 09:55:29;;;;;;;15.43;3.33;;;;;;;17.67;87.22;102532.06;6082065;19;20014;-76
2023/10/05 09:57:41;;;;;;;9.50;3.13;;;;;;;17.49;86.45;102521.28;6094818;19;20017;-76